ZBTJ Airport Information

Runway Information
Runway 16 Length 10499 ft width 164 ft
Elevation 7 ft Threshold 0 ft Heading 155
Runway 34 Length 10499 ft Width 164 ft
Elevation 7 ft Threshold 0 ft Heading 335
Airport Frequencies
Type APP Name TIANJIN AP Frequency 118.2 MHZ
Type ATIS Name ATIS Frequency 126.4 MHZ
Type GND Name RAMP CON Frequency 121.75 MHZ
Type TWR Name TIANJIN TW Frequency 127.9 MHZ
Airport Navaids
Type NDB Name Tianjin Frequency 339 KHZ
Type NDB Name Tianjin Frequency 517 KHZ
Type NDB Name Tianjin Frequency 452 KHZ
Type VOR-DME Name Tianjin Frequency 112100 KHZ
Airport Weather Information & NOTAM
ADDS - METARS form results

(1335 UTC 05 March 2021)
Data provider http://aviationweather.gov/metar/data/
 
METAR text: ZBTJ 051330Z 10004MPS CAVOK 01/M10 Q1033 NOSIG
Conditions at: ZBTJ (TIANJIN/ZHANGGUI, CN) observed 1330 UTC 05 March 2021
Temperature: 1.0°C (34°F)
Dewpoint: -10.0°C (14°F) [RH = 44%]
Pressure (altimeter): 30.50 inches Hg (1033.0 mb)
Winds: from the E (100 degrees) at 9 MPH (8 knots; 4.1 m/s)
Visibility: 6 or more miles (10+ km)
Ceiling: ceiling and visibility are OK
Clouds: unknown
Weather: no significant weather observed at this time

METAR text: ZBTJ 051300Z 11005MPS CAVOK 01/M10 Q1033 NOSIG
Conditions at: ZBTJ (TIANJIN/ZHANGGUI, CN) observed 1300 UTC 05 March 2021
Temperature: 1.0°C (34°F)
Dewpoint: -10.0°C (14°F) [RH = 44%]
Pressure (altimeter): 30.50 inches Hg (1033.0 mb)
Winds: from the ESE (110 degrees) at 12 MPH (10 knots; 5.1 m/s)
Visibility: 6 or more miles (10+ km)
Ceiling: ceiling and visibility are OK
Clouds: unknown
Weather: no significant weather observed at this time

Forecast for: ZBTJ (TIANJIN/ZHANGGUI, CN)
Text: TAF ZBTJ 050902Z 0512/0612 08005MPS 5000 HZ BKN033 TX07/0607Z TNM03/0521Z
Forecast period: 1200 UTC 05 March 2021 to 0300 UTC 06 March 2021
Forecast type: FROM: standard forecast or significant change
Winds: from the E (80 degrees) at 12 MPH (10 knots; 5.1 m/s)
Visibility: 3 miles (5 km)
Ceiling: 3300 feet AGL
Clouds: broken clouds at 3300 feet AGL
Weather: HZ  (haze)
Text: BECMG 0603/0604 16003MPS
Forecast period: 0300 to 1200 UTC 06 March 2021
Forecast type: BECOMING: Conditions expected to become as follows by 0400 UTC 06 March 2021
Winds: from the SSE (160 degrees) at 7 MPH (6 knots; 3.1 m/s)
Visibility: 3 miles (5 km)
Ceiling: 3300 feet AGL
Clouds: broken clouds at 3300 feet AGL
Weather: HZ  (haze)